createdAt,value
2023-10-02T08:31:01.492Z,101804.54
2023-10-02T08:33:53.978Z,101792.19
2023-10-02T08:36:23.321Z,101803.48
2023-10-02T08:38:59.379Z,101800.94
2023-10-02T08:41:45.022Z,101800.32
2023-10-02T08:44:16.326Z,101802.19
2023-10-02T08:46:46.648Z,101802.84
2023-10-02T08:49:17.880Z,101803.04
2023-10-02T08:51:53.414Z,101806.16
2023-10-02T08:54:29.089Z,101802.11
2023-10-02T08:57:10.247Z,101801.31
2023-10-02T08:59:40.446Z,101804.25
2023-10-02T09:02:18.298Z,101801.17
2023-10-02T09:04:53.687Z,101799.02
2023-10-02T09:07:46.322Z,101799.69
2023-10-02T09:10:32.367Z,101798.88
2023-10-02T09:13:18.677Z,101796.52
2023-10-02T09:15:54.947Z,101802.50
2023-10-02T09:19:18.779Z,101808.05
2023-10-02T09:21:48.956Z,101801.74
2023-10-02T09:24:24.585Z,101799.86
2023-10-02T09:26:59.111Z,101798.43
2023-10-02T09:29:29.152Z,101798.30
2023-10-02T09:31:58.152Z,101790.79
2023-10-02T09:34:53.480Z,101796.41
2023-10-02T09:37:50.313Z,101798.17
2023-10-02T09:40:18.053Z,101791.67
2023-10-02T09:42:49.920Z,101788.05
2023-10-02T09:45:33.125Z,101794.69
2023-10-02T09:48:32.579Z,101792.47
2023-10-02T09:51:08.001Z,101794.47
2023-10-02T09:53:43.425Z,101797.73
2023-10-02T09:56:19.426Z,101793.80
2023-10-02T09:59:14.329Z,101795.41
2023-10-02T10:02:09.577Z,101797.42
2023-10-02T10:05:12.493Z,101796.33
2023-10-02T10:07:53.812Z,101793.23
2023-10-02T10:10:50.877Z,101790.77
2023-10-02T10:13:48.186Z,101786.90
2023-10-02T10:16:35.816Z,101788.63
2023-10-02T10:19:10.196Z,101791.02
2023-10-02T10:21:58.256Z,101786.88
2023-10-02T10:25:02.991Z,101780.11
2023-10-02T10:27:43.280Z,101774.16
2023-10-02T10:30:26.501Z,101768.55
2023-10-02T10:33:17.588Z,101767.63
2023-10-02T10:36:20.261Z,101771.88
2023-10-02T10:38:50.926Z,101770.49
2023-10-02T10:41:39.931Z,101770.84
2023-10-02T10:44:15.110Z,101770.27
2023-10-02T10:46:49.304Z,101763.08
2023-10-02T10:49:25.243Z,101763.75
2023-10-02T10:51:56.945Z,101758.99
2023-10-02T10:54:51.708Z,101754.30
2023-10-02T10:57:24.396Z,101752.11
2023-10-02T11:00:27.614Z,101747.46
2023-10-02T11:03:21.606Z,101743.79
2023-10-02T11:05:51.061Z,101749.02
2023-10-02T11:08:30.216Z,101747.05
2023-10-02T11:11:02.867Z,101739.46
2023-10-02T11:13:54.597Z,101733.36
2023-10-02T11:16:32.841Z,101723.61
2023-10-02T11:19:22.055Z,101728.32
2023-10-02T11:22:17.447Z,101733.48
2023-10-02T11:24:55.994Z,101731.52
2023-10-02T11:27:26.177Z,101727.77
2023-10-02T11:30:08.752Z,101727.08
2023-10-02T11:32:56.229Z,101721.34
2023-10-02T11:35:39.636Z,101715.70
2023-10-02T11:38:11.530Z,101708.90
2023-10-02T11:40:45.106Z,101709.60
2023-10-02T11:43:17.154Z,101715.66
2023-10-02T11:45:49.515Z,101719.55
2023-10-02T11:48:18.493Z,101710.46
2023-10-02T11:50:48.546Z,101717.98
2023-10-02T11:53:17.357Z,101717.30
2023-10-02T11:55:46.277Z,101711.46
2023-10-02T11:58:32.223Z,101708.72
2023-10-02T12:01:06.128Z,101703.08
2023-10-02T12:03:37.788Z,101706.70
2023-10-02T12:06:15.740Z,101706.76
2023-10-02T12:08:45.809Z,101712.94
2023-10-02T12:11:17.391Z,101713.92
2023-10-02T12:13:47.022Z,101707.50
2023-10-02T12:16:17.327Z,101710.28
2023-10-02T12:18:46.316Z,101703.66
2023-10-02T12:21:16.219Z,101710.83
2023-10-02T12:23:46.287Z,101710.10
2023-10-02T12:26:34.349Z,101713.06
2023-10-02T12:29:04.216Z,101712.34
2023-10-02T12:31:37.943Z,101709.33
2023-10-02T12:34:09.304Z,101708.29
2023-10-02T12:36:38.115Z,101710.31
2023-10-02T12:39:11.263Z,101714.51
2023-10-02T12:41:44.767Z,101713.04
2023-10-02T12:44:15.177Z,101709.16
2023-10-02T12:46:51.900Z,101707.33
2023-10-02T12:49:24.617Z,101708.61
2023-10-02T12:51:54.447Z,101703.45
2023-10-02T12:54:25.297Z,101713.95
2023-10-02T12:56:54.937Z,101713.42
2023-10-02T12:59:25.483Z,101713.35
2023-10-02T13:01:54.476Z,101710.96
2023-10-02T13:04:23.289Z,101707.93
2023-10-02T13:06:52.742Z,101711.45
2023-10-02T13:09:21.676Z,101708.31
2023-10-02T13:11:50.491Z,101705.13
2023-10-02T13:14:20.202Z,101705.33
2023-10-02T13:16:52.898Z,101694.23
2023-10-02T13:19:21.952Z,101701.20
2023-10-02T13:21:54.270Z,101700.17
2023-10-02T13:24:25.769Z,101693.80
2023-10-02T13:26:55.376Z,101695.38
2023-10-02T13:29:25.880Z,101693.83
2023-10-02T13:31:54.985Z,101695.66
2023-10-02T13:34:23.887Z,101687.94
2023-10-02T13:36:52.717Z,101686.27
2023-10-02T13:39:24.096Z,101685.85
2023-10-02T13:41:55.580Z,101689.28
2023-10-02T13:44:24.413Z,101680.82
2023-10-02T13:46:53.561Z,101683.98
2023-10-02T13:49:22.583Z,101689.04
2023-10-02T13:51:51.516Z,101698.52
2023-10-02T13:54:20.339Z,101697.05
2023-10-02T13:56:49.189Z,101691.31
2023-10-02T13:59:18.285Z,101690.77
2023-10-02T14:01:47.871Z,101690.30
2023-10-02T14:04:16.857Z,101691.77
2023-10-02T14:06:47.654Z,101695.60
2023-10-02T14:09:16.531Z,101692.92
2023-10-02T14:11:45.319Z,101695.44
2023-10-02T14:14:14.272Z,101696.77
2023-10-02T14:16:43.083Z,101693.77
2023-10-02T14:19:11.929Z,101695.84
2023-10-02T14:21:40.768Z,101698.64
2023-10-02T14:24:11.072Z,101696.86
